Terminal Aerodrome Forecast
Issued by NWS Blacksburg, VA

Current Version | Previous Version | Text Only | Print | Product List | Glossary Off
Versions: 1 2 3 4 5 6 7 8 9 10 11 12 13 14 15 16 17 18 19 20 21 22 23 24

484
FTUS41 KRNK 271723
TAFBLF
TAF
KBLF 271723Z 2718/2818 30009KT P6SM VCSH SCT045
     FM272000 30009KT P6SM SCT045
     FM280000 30005KT P6SM FEW250
     FM281600 21004KT P6SM SKC=

USA.gov is the U.S. government's official web portal to all federal, state and local government web resources and services.